sensor_id;sensor_type;location;lat;lon;timestamp;P1;durP1;ratioP1;P2;durP2;ratioP2
7316;SDS011;3699;51.462;6.696;2023-02-16T00:00:58;32.30;;;19.80;;
7316;SDS011;3699;51.462;6.696;2023-02-16T00:03:25;37.00;;;21.53;;
7316;SDS011;3699;51.462;6.696;2023-02-16T00:05:52;41.13;;;22.40;;
7316;SDS011;3699;51.462;6.696;2023-02-16T00:08:19;40.67;;;20.53;;
7316;SDS011;3699;51.462;6.696;2023-02-16T00:10:46;36.07;;;20.60;;
7316;SDS011;3699;51.462;6.696;2023-02-16T00:13:26;36.63;;;21.60;;
7316;SDS011;3699;51.462;6.696;2023-02-16T00:16:14;39.03;;;22.37;;
7316;SDS011;3699;51.462;6.696;2023-02-16T00:18:41;36.77;;;21.70;;
7316;SDS011;3699;51.462;6.696;2023-02-16T00:21:08;37.37;;;21.37;;
7316;SDS011;3699;51.462;6.696;2023-02-16T00:23:35;38.40;;;22.67;;
7316;SDS011;3699;51.462;6.696;2023-02-16T00:26:02;38.93;;;21.90;;
7316;SDS011;3699;51.462;6.696;2023-02-16T00:28:29;42.23;;;23.47;;
7316;SDS011;3699;51.462;6.696;2023-02-16T00:30:57;40.20;;;22.03;;
7316;SDS011;3699;51.462;6.696;2023-02-16T00:33:25;41.67;;;23.13;;
7316;SDS011;3699;51.462;6.696;2023-02-16T00:35:52;39.07;;;22.60;;
7316;SDS011;3699;51.462;6.696;2023-02-16T00:38:18;42.27;;;22.00;;
7316;SDS011;3699;51.462;6.696;2023-02-16T00:40:45;40.60;;;21.73;;
7316;SDS011;3699;51.462;6.696;2023-02-16T00:43:15;36.17;;;20.97;;
7316;SDS011;3699;51.462;6.696;2023-02-16T00:45:50;38.80;;;21.10;;
7316;SDS011;3699;51.462;6.696;2023-02-16T00:48:18;37.27;;;20.43;;
7316;SDS011;3699;51.462;6.696;2023-02-16T00:50:46;38.13;;;21.00;;
7316;SDS011;3699;51.462;6.696;2023-02-16T00:53:13;39.23;;;22.23;;
7316;SDS011;3699;51.462;6.696;2023-02-16T00:55:40;37.07;;;19.63;;
7316;SDS011;3699;51.462;6.696;2023-02-16T00:58:11;36.17;;;21.10;;
7316;SDS011;3699;51.462;6.696;2023-02-16T01:00:41;35.33;;;21.53;;
7316;SDS011;3699;51.462;6.696;2023-02-16T01:03:12;36.13;;;20.33;;
7316;SDS011;3699;51.462;6.696;2023-02-16T01:05:41;38.37;;;21.47;;
7316;SDS011;3699;51.462;6.696;2023-02-16T01:08:10;38.67;;;20.00;;
7316;SDS011;3699;51.462;6.696;2023-02-16T01:10:56;38.37;;;19.97;;
7316;SDS011;3699;51.462;6.696;2023-02-16T01:13:34;36.60;;;20.87;;
7316;SDS011;3699;51.462;6.696;2023-02-16T01:16:09;36.37;;;20.17;;
7316;SDS011;3699;51.462;6.696;2023-02-16T01:18:37;33.80;;;20.77;;
7316;SDS011;3699;51.462;6.696;2023-02-16T01:21:04;33.53;;;20.20;;
7316;SDS011;3699;51.462;6.696;2023-02-16T01:23:32;37.57;;;22.23;;
7316;SDS011;3699;51.462;6.696;2023-02-16T01:25:58;36.53;;;21.33;;
7316;SDS011;3699;51.462;6.696;2023-02-16T01:28:25;38.27;;;21.30;;
7316;SDS011;3699;51.462;6.696;2023-02-16T01:30:52;37.33;;;20.23;;
7316;SDS011;3699;51.462;6.696;2023-02-16T01:33:19;35.30;;;20.57;;
7316;SDS011;3699;51.462;6.696;2023-02-16T01:35:46;38.80;;;20.30;;
7316;SDS011;3699;51.462;6.696;2023-02-16T01:38:15;37.37;;;21.33;;
7316;SDS011;3699;51.462;6.696;2023-02-16T01:40:48;35.93;;;20.57;;
7316;SDS011;3699;51.462;6.696;2023-02-16T01:43:23;35.93;;;21.00;;
7316;SDS011;3699;51.462;6.696;2023-02-16T01:45:56;38.87;;;21.53;;
7316;SDS011;3699;51.462;6.696;2023-02-16T01:48:29;39.10;;;22.33;;
7316;SDS011;3699;51.462;6.696;2023-02-16T01:50:58;35.23;;;20.47;;
7316;SDS011;3699;51.462;6.696;2023-02-16T01:53:31;43.03;;;22.50;;
7316;SDS011;3699;51.462;6.696;2023-02-16T01:56:02;37.17;;;21.03;;
7316;SDS011;3699;51.462;6.696;2023-02-16T01:58:36;41.47;;;21.97;;
7316;SDS011;3699;51.462;6.696;2023-02-16T02:04:16;38.73;;;20.93;;
7316;SDS011;3699;51.462;6.696;2023-02-16T02:07:04;36.13;;;20.30;;
7316;SDS011;3699;51.462;6.696;2023-02-16T02:09:34;38.70;;;21.03;;
7316;SDS011;3699;51.462;6.696;2023-02-16T02:12:08;42.07;;;22.53;;
7316;SDS011;3699;51.462;6.696;2023-02-16T02:14:41;38.07;;;21.57;;
7316;SDS011;3699;51.462;6.696;2023-02-16T02:17:09;38.33;;;20.57;;
7316;SDS011;3699;51.462;6.696;2023-02-16T02:19:42;42.63;;;22.87;;
7316;SDS011;3699;51.462;6.696;2023-02-16T02:22:25;37.07;;;21.03;;
7316;SDS011;3699;51.462;6.696;2023-02-16T02:25:44;38.77;;;21.20;;
7316;SDS011;3699;51.462;6.696;2023-02-16T02:28:36;31.93;;;19.13;;
7316;SDS011;3699;51.462;6.696;2023-02-16T02:31:08;39.70;;;21.70;;
7316;SDS011;3699;51.462;6.696;2023-02-16T02:33:41;38.33;;;22.00;;
7316;SDS011;3699;51.462;6.696;2023-02-16T02:36:20;39.93;;;22.37;;
7316;SDS011;3699;51.462;6.696;2023-02-16T02:38:56;38.57;;;20.73;;
7316;SDS011;3699;51.462;6.696;2023-02-16T02:41:33;44.57;;;22.80;;
7316;SDS011;3699;51.462;6.696;2023-02-16T02:44:21;43.23;;;23.40;;
7316;SDS011;3699;51.462;6.696;2023-02-16T02:46:52;42.47;;;23.17;;
7316;SDS011;3699;51.462;6.696;2023-02-16T02:49:19;45.80;;;25.40;;
7316;SDS011;3699;51.462;6.696;2023-02-16T02:51:46;44.67;;;24.17;;
7316;SDS011;3699;51.462;6.696;2023-02-16T02:54:15;43.47;;;24.27;;
7316;SDS011;3699;51.462;6.696;2023-02-16T02:57:02;48.13;;;24.27;;
7316;SDS011;3699;51.462;6.696;2023-02-16T02:59:51;40.33;;;22.30;;
7316;SDS011;3699;51.462;6.696;2023-02-16T03:02:39;46.03;;;23.90;;
7316;SDS011;3699;51.462;6.696;2023-02-16T03:05:08;40.53;;;24.50;;
7316;SDS011;3699;51.462;6.696;2023-02-16T03:07:38;42.33;;;22.67;;
7316;SDS011;3699;51.462;6.696;2023-02-16T03:10:13;44.73;;;24.27;;
7316;SDS011;3699;51.462;6.696;2023-02-16T03:13:00;49.83;;;24.63;;
7316;SDS011;3699;51.462;6.696;2023-02-16T03:15:30;46.20;;;24.00;;
7316;SDS011;3699;51.462;6.696;2023-02-16T03:17:58;46.77;;;24.47;;
7316;SDS011;3699;51.462;6.696;2023-02-16T03:20:45;48.33;;;24.83;;
7316;SDS011;3699;51.462;6.696;2023-02-16T03:23:30;56.47;;;25.97;;
7316;SDS011;3699;51.462;6.696;2023-02-16T03:26:15;52.43;;;24.73;;
7316;SDS011;3699;51.462;6.696;2023-02-16T03:28:59;45.67;;;23.63;;
7316;SDS011;3699;51.462;6.696;2023-02-16T03:31:47;51.27;;;24.20;;
7316;SDS011;3699;51.462;6.696;2023-02-16T03:34:14;53.87;;;27.30;;
7316;SDS011;3699;51.462;6.696;2023-02-16T03:36:45;48.33;;;24.90;;
7316;SDS011;3699;51.462;6.696;2023-02-16T03:39:14;49.20;;;26.47;;
7316;SDS011;3699;51.462;6.696;2023-02-16T03:41:42;52.57;;;24.97;;
7316;SDS011;3699;51.462;6.696;2023-02-16T03:44:12;47.50;;;24.83;;
7316;SDS011;3699;51.462;6.696;2023-02-16T03:46:39;51.57;;;26.00;;
7316;SDS011;3699;51.462;6.696;2023-02-16T03:49:08;47.77;;;25.20;;
7316;SDS011;3699;51.462;6.696;2023-02-16T03:51:35;50.10;;;24.73;;
7316;SDS011;3699;51.462;6.696;2023-02-16T03:54:01;57.47;;;27.60;;
7316;SDS011;3699;51.462;6.696;2023-02-16T03:56:28;53.23;;;25.37;;
7316;SDS011;3699;51.462;6.696;2023-02-16T03:58:55;53.07;;;24.53;;
7316;SDS011;3699;51.462;6.696;2023-02-16T04:01:22;47.53;;;26.70;;
7316;SDS011;3699;51.462;6.696;2023-02-16T04:03:49;49.87;;;24.30;;
7316;SDS011;3699;51.462;6.696;2023-02-16T04:06:17;47.53;;;24.07;;
7316;SDS011;3699;51.462;6.696;2023-02-16T04:08:44;44.73;;;23.30;;
7316;SDS011;3699;51.462;6.696;2023-02-16T04:11:10;48.43;;;23.97;;
7316;SDS011;3699;51.462;6.696;2023-02-16T04:13:55;43.67;;;24.07;;
7316;SDS011;3699;51.462;6.696;2023-02-16T04:16:21;41.47;;;23.53;;
7316;SDS011;3699;51.462;6.696;2023-02-16T04:18:48;47.77;;;25.37;;
7316;SDS011;3699;51.462;6.696;2023-02-16T04:21:16;37.70;;;22.30;;
7316;SDS011;3699;51.462;6.696;2023-02-16T04:23:43;41.13;;;23.97;;
7316;SDS011;3699;51.462;6.696;2023-02-16T04:26:10;45.50;;;24.40;;
7316;SDS011;3699;51.462;6.696;2023-02-16T04:28:36;42.83;;;23.53;;
7316;SDS011;3699;51.462;6.696;2023-02-16T04:31:03;50.97;;;26.57;;
7316;SDS011;3699;51.462;6.696;2023-02-16T04:33:30;44.93;;;23.80;;
7316;SDS011;3699;51.462;6.696;2023-02-16T04:35:57;50.73;;;25.93;;
7316;SDS011;3699;51.462;6.696;2023-02-16T04:38:25;48.83;;;24.77;;
7316;SDS011;3699;51.462;6.696;2023-02-16T04:40:52;45.40;;;24.73;;
7316;SDS011;3699;51.462;6.696;2023-02-16T04:43:18;50.03;;;25.97;;
7316;SDS011;3699;51.462;6.696;2023-02-16T04:45:45;46.33;;;24.33;;
7316;SDS011;3699;51.462;6.696;2023-02-16T04:48:12;47.03;;;24.27;;
7316;SDS011;3699;51.462;6.696;2023-02-16T04:50:39;50.13;;;24.80;;
7316;SDS011;3699;51.462;6.696;2023-02-16T04:53:06;44.10;;;24.37;;
7316;SDS011;3699;51.462;6.696;2023-02-16T04:55:34;47.47;;;23.73;;
7316;SDS011;3699;51.462;6.696;2023-02-16T04:58:01;47.07;;;24.43;;
7316;SDS011;3699;51.462;6.696;2023-02-16T05:00:28;46.10;;;24.13;;
7316;SDS011;3699;51.462;6.696;2023-02-16T05:02:55;49.93;;;24.27;;
7316;SDS011;3699;51.462;6.696;2023-02-16T05:05:22;45.53;;;25.00;;
7316;SDS011;3699;51.462;6.696;2023-02-16T05:07:49;47.17;;;24.60;;
7316;SDS011;3699;51.462;6.696;2023-02-16T05:10:15;47.67;;;25.03;;
7316;SDS011;3699;51.462;6.696;2023-02-16T05:12:43;50.53;;;25.60;;
7316;SDS011;3699;51.462;6.696;2023-02-16T05:15:28;52.30;;;25.63;;
7316;SDS011;3699;51.462;6.696;2023-02-16T05:17:55;45.50;;;23.70;;
7316;SDS011;3699;51.462;6.696;2023-02-16T05:20:22;50.03;;;24.77;;
7316;SDS011;3699;51.462;6.696;2023-02-16T05:23:09;52.10;;;24.87;;
7316;SDS011;3699;51.462;6.696;2023-02-16T05:25:36;52.60;;;25.30;;
7316;SDS011;3699;51.462;6.696;2023-02-16T05:28:04;45.50;;;24.67;;
7316;SDS011;3699;51.462;6.696;2023-02-16T05:30:30;54.77;;;25.60;;
7316;SDS011;3699;51.462;6.696;2023-02-16T05:32:58;44.03;;;23.93;;
7316;SDS011;3699;51.462;6.696;2023-02-16T05:35:25;46.80;;;24.13;;
7316;SDS011;3699;51.462;6.696;2023-02-16T05:37:51;46.77;;;24.43;;
7316;SDS011;3699;51.462;6.696;2023-02-16T05:40:18;49.23;;;24.37;;
7316;SDS011;3699;51.462;6.696;2023-02-16T05:42:45;54.30;;;24.43;;
7316;SDS011;3699;51.462;6.696;2023-02-16T05:45:13;45.73;;;24.10;;
7316;SDS011;3699;51.462;6.696;2023-02-16T05:47:40;45.73;;;23.63;;
7316;SDS011;3699;51.462;6.696;2023-02-16T05:50:07;47.50;;;24.53;;
7316;SDS011;3699;51.462;6.696;2023-02-16T05:52:34;48.37;;;24.60;;
7316;SDS011;3699;51.462;6.696;2023-02-16T05:55:01;44.37;;;23.57;;
7316;SDS011;3699;51.462;6.696;2023-02-16T05:57:28;48.27;;;25.23;;
7316;SDS011;3699;51.462;6.696;2023-02-16T05:59:58;41.83;;;22.80;;
7316;SDS011;3699;51.462;6.696;2023-02-16T06:02:26;46.20;;;23.73;;
7316;SDS011;3699;51.462;6.696;2023-02-16T06:04:53;46.37;;;24.50;;
7316;SDS011;3699;51.462;6.696;2023-02-16T06:07:20;53.80;;;24.13;;
7316;SDS011;3699;51.462;6.696;2023-02-16T06:09:47;44.17;;;22.40;;
7316;SDS011;3699;51.462;6.696;2023-02-16T06:12:14;42.93;;;22.80;;
7316;SDS011;3699;51.462;6.696;2023-02-16T06:14:40;45.33;;;23.13;;
7316;SDS011;3699;51.462;6.696;2023-02-16T06:17:07;41.50;;;23.13;;
7316;SDS011;3699;51.462;6.696;2023-02-16T06:19:35;45.27;;;23.90;;
7316;SDS011;3699;51.462;6.696;2023-02-16T06:22:02;39.10;;;22.47;;
7316;SDS011;3699;51.462;6.696;2023-02-16T06:24:28;45.37;;;23.30;;
7316;SDS011;3699;51.462;6.696;2023-02-16T06:26:55;46.30;;;23.60;;
7316;SDS011;3699;51.462;6.696;2023-02-16T06:29:22;46.13;;;22.80;;
7316;SDS011;3699;51.462;6.696;2023-02-16T06:31:49;44.47;;;22.97;;
7316;SDS011;3699;51.462;6.696;2023-02-16T06:34:15;46.57;;;23.47;;
7316;SDS011;3699;51.462;6.696;2023-02-16T06:36:43;40.40;;;21.80;;
7316;SDS011;3699;51.462;6.696;2023-02-16T06:39:10;45.70;;;23.73;;
7316;SDS011;3699;51.462;6.696;2023-02-16T06:41:37;40.20;;;21.77;;
7316;SDS011;3699;51.462;6.696;2023-02-16T06:44:05;44.27;;;22.33;;
7316;SDS011;3699;51.462;6.696;2023-02-16T06:46:33;42.17;;;22.97;;
7316;SDS011;3699;51.462;6.696;2023-02-16T06:49:00;45.67;;;23.03;;
7316;SDS011;3699;51.462;6.696;2023-02-16T06:51:27;36.50;;;20.97;;
7316;SDS011;3699;51.462;6.696;2023-02-16T06:53:55;41.23;;;21.57;;
7316;SDS011;3699;51.462;6.696;2023-02-16T06:56:22;38.23;;;22.47;;
7316;SDS011;3699;51.462;6.696;2023-02-16T06:58:49;52.57;;;24.73;;
7316;SDS011;3699;51.462;6.696;2023-02-16T07:01:16;41.00;;;22.30;;
7316;SDS011;3699;51.462;6.696;2023-02-16T07:03:46;38.03;;;21.70;;
7316;SDS011;3699;51.462;6.696;2023-02-16T07:06:14;41.00;;;23.97;;
7316;SDS011;3699;51.462;6.696;2023-02-16T07:08:40;40.37;;;22.57;;
7316;SDS011;3699;51.462;6.696;2023-02-16T07:11:08;40.40;;;23.97;;
7316;SDS011;3699;51.462;6.696;2023-02-16T07:13:35;35.03;;;20.80;;
7316;SDS011;3699;51.462;6.696;2023-02-16T07:16:02;41.60;;;21.50;;
7316;SDS011;3699;51.462;6.696;2023-02-16T07:18:30;41.37;;;22.47;;
7316;SDS011;3699;51.462;6.696;2023-02-16T07:20:57;40.23;;;21.87;;
7316;SDS011;3699;51.462;6.696;2023-02-16T07:23:24;40.83;;;21.97;;
7316;SDS011;3699;51.462;6.696;2023-02-16T07:25:51;40.47;;;21.90;;
7316;SDS011;3699;51.462;6.696;2023-02-16T07:28:19;37.17;;;21.53;;
7316;SDS011;3699;51.462;6.696;2023-02-16T07:30:46;40.90;;;22.97;;
7316;SDS011;3699;51.462;6.696;2023-02-16T07:33:13;39.73;;;22.43;;
7316;SDS011;3699;51.462;6.696;2023-02-16T07:35:40;44.00;;;22.27;;
7316;SDS011;3699;51.462;6.696;2023-02-16T07:38:07;41.43;;;22.73;;
7316;SDS011;3699;51.462;6.696;2023-02-16T07:40:34;39.27;;;21.57;;
7316;SDS011;3699;51.462;6.696;2023-02-16T07:43:02;41.40;;;23.87;;
7316;SDS011;3699;51.462;6.696;2023-02-16T07:45:31;42.60;;;22.87;;
7316;SDS011;3699;51.462;6.696;2023-02-16T07:47:59;47.00;;;25.13;;
7316;SDS011;3699;51.462;6.696;2023-02-16T07:50:26;45.60;;;22.20;;
7316;SDS011;3699;51.462;6.696;2023-02-16T07:52:53;40.90;;;22.03;;
7316;SDS011;3699;51.462;6.696;2023-02-16T07:55:20;45.23;;;22.87;;
7316;SDS011;3699;51.462;6.696;2023-02-16T07:57:47;40.77;;;23.53;;
7316;SDS011;3699;51.462;6.696;2023-02-16T08:00:19;44.97;;;23.47;;
7316;SDS011;3699;51.462;6.696;2023-02-16T08:02:47;44.90;;;23.50;;
7316;SDS011;3699;51.462;6.696;2023-02-16T08:05:14;45.07;;;24.17;;
7316;SDS011;3699;51.462;6.696;2023-02-16T08:07:41;45.80;;;23.17;;
7316;SDS011;3699;51.462;6.696;2023-02-16T08:10:09;49.77;;;24.13;;
7316;SDS011;3699;51.462;6.696;2023-02-16T08:12:37;44.40;;;25.03;;
7316;SDS011;3699;51.462;6.696;2023-02-16T08:15:04;47.90;;;24.13;;
7316;SDS011;3699;51.462;6.696;2023-02-16T08:17:31;43.87;;;24.03;;
7316;SDS011;3699;51.462;6.696;2023-02-16T08:19:59;45.63;;;25.67;;
7316;SDS011;3699;51.462;6.696;2023-02-16T08:22:26;43.17;;;24.23;;
7316;SDS011;3699;51.462;6.696;2023-02-16T08:24:53;45.00;;;23.97;;
7316;SDS011;3699;51.462;6.696;2023-02-16T08:27:20;54.03;;;26.43;;
7316;SDS011;3699;51.462;6.696;2023-02-16T08:29:47;49.80;;;26.03;;
7316;SDS011;3699;51.462;6.696;2023-02-16T08:32:14;51.07;;;25.87;;
7316;SDS011;3699;51.462;6.696;2023-02-16T08:34:41;45.53;;;24.87;;
7316;SDS011;3699;51.462;6.696;2023-02-16T08:37:11;47.20;;;24.93;;
7316;SDS011;3699;51.462;6.696;2023-02-16T08:39:38;47.47;;;23.27;;
7316;SDS011;3699;51.462;6.696;2023-02-16T08:42:05;43.77;;;24.70;;
7316;SDS011;3699;51.462;6.696;2023-02-16T08:44:32;48.77;;;25.50;;
7316;SDS011;3699;51.462;6.696;2023-02-16T08:46:59;46.37;;;25.63;;
7316;SDS011;3699;51.462;6.696;2023-02-16T08:49:26;53.50;;;26.40;;
7316;SDS011;3699;51.462;6.696;2023-02-16T08:51:54;42.13;;;24.50;;
7316;SDS011;3699;51.462;6.696;2023-02-16T08:54:24;48.13;;;26.27;;
7316;SDS011;3699;51.462;6.696;2023-02-16T08:56:54;49.20;;;25.17;;
7316;SDS011;3699;51.462;6.696;2023-02-16T08:59:21;48.23;;;24.67;;
7316;SDS011;3699;51.462;6.696;2023-02-16T09:01:49;45.47;;;23.80;;
7316;SDS011;3699;51.462;6.696;2023-02-16T09:04:16;42.10;;;23.33;;
7316;SDS011;3699;51.462;6.696;2023-02-16T09:06:44;40.63;;;23.20;;
7316;SDS011;3699;51.462;6.696;2023-02-16T09:09:13;36.13;;;21.17;;
7316;SDS011;3699;51.462;6.696;2023-02-16T09:11:42;36.87;;;23.23;;
7316;SDS011;3699;51.462;6.696;2023-02-16T09:14:08;36.33;;;21.43;;
7316;SDS011;3699;51.462;6.696;2023-02-16T09:16:36;36.90;;;21.37;;
7316;SDS011;3699;51.462;6.696;2023-02-16T09:19:07;39.43;;;21.87;;
7316;SDS011;3699;51.462;6.696;2023-02-16T09:21:34;36.03;;;20.20;;
7316;SDS011;3699;51.462;6.696;2023-02-16T09:24:01;35.90;;;21.30;;
7316;SDS011;3699;51.462;6.696;2023-02-16T09:26:29;33.80;;;20.60;;
7316;SDS011;3699;51.462;6.696;2023-02-16T09:28:58;37.93;;;20.60;;
7316;SDS011;3699;51.462;6.696;2023-02-16T09:31:27;33.87;;;20.47;;
7316;SDS011;3699;51.462;6.696;2023-02-16T09:33:57;35.70;;;20.63;;
7316;SDS011;3699;51.462;6.696;2023-02-16T09:36:28;30.47;;;19.17;;
7316;SDS011;3699;51.462;6.696;2023-02-16T09:38:56;36.10;;;20.67;;
7316;SDS011;3699;51.462;6.696;2023-02-16T09:41:26;39.33;;;20.73;;
7316;SDS011;3699;51.462;6.696;2023-02-16T09:44:05;31.60;;;18.70;;
7316;SDS011;3699;51.462;6.696;2023-02-16T09:46:42;33.63;;;20.07;;
7316;SDS011;3699;51.462;6.696;2023-02-16T09:49:14;36.27;;;20.27;;
7316;SDS011;3699;51.462;6.696;2023-02-16T09:51:52;31.97;;;20.67;;
7316;SDS011;3699;51.462;6.696;2023-02-16T09:54:27;32.33;;;19.60;;
7316;SDS011;3699;51.462;6.696;2023-02-16T09:57:00;33.07;;;18.77;;
7316;SDS011;3699;51.462;6.696;2023-02-16T09:59:36;37.83;;;20.27;;
7316;SDS011;3699;51.462;6.696;2023-02-16T10:02:15;32.83;;;20.57;;
7316;SDS011;3699;51.462;6.696;2023-02-16T10:04:54;37.57;;;21.37;;
7316;SDS011;3699;51.462;6.696;2023-02-16T10:07:37;36.30;;;19.73;;
7316;SDS011;3699;51.462;6.696;2023-02-16T10:10:10;38.97;;;21.50;;
7316;SDS011;3699;51.462;6.696;2023-02-16T10:12:40;41.53;;;21.87;;
7316;SDS011;3699;51.462;6.696;2023-02-16T10:15:16;36.53;;;20.97;;
7316;SDS011;3699;51.462;6.696;2023-02-16T10:17:47;34.10;;;20.10;;
7316;SDS011;3699;51.462;6.696;2023-02-16T10:20:18;34.87;;;20.93;;
7316;SDS011;3699;51.462;6.696;2023-02-16T10:22:48;32.43;;;20.83;;
7316;SDS011;3699;51.462;6.696;2023-02-16T10:25:20;27.07;;;17.50;;
7316;SDS011;3699;51.462;6.696;2023-02-16T10:27:51;36.57;;;21.00;;
7316;SDS011;3699;51.462;6.696;2023-02-16T10:30:30;30.50;;;19.07;;
7316;SDS011;3699;51.462;6.696;2023-02-16T10:32:58;37.10;;;20.67;;
7316;SDS011;3699;51.462;6.696;2023-02-16T10:35:36;73.67;;;23.60;;
7316;SDS011;3699;51.462;6.696;2023-02-16T10:38:11;34.43;;;21.30;;
7316;SDS011;3699;51.462;6.696;2023-02-16T10:40:45;42.00;;;21.60;;
7316;SDS011;3699;51.462;6.696;2023-02-16T10:43:20;35.50;;;21.60;;
7316;SDS011;3699;51.462;6.696;2023-02-16T10:46:00;41.03;;;20.73;;
7316;SDS011;3699;51.462;6.696;2023-02-16T10:48:28;40.67;;;20.83;;
7316;SDS011;3699;51.462;6.696;2023-02-16T10:50:55;36.97;;;21.73;;
7316;SDS011;3699;51.462;6.696;2023-02-16T10:53:28;37.93;;;22.70;;
7316;SDS011;3699;51.462;6.696;2023-02-16T10:56:01;40.53;;;22.37;;
7316;SDS011;3699;51.462;6.696;2023-02-16T10:58:51;39.27;;;21.47;;
7316;SDS011;3699;51.462;6.696;2023-02-16T11:01:21;41.30;;;21.43;;
7316;SDS011;3699;51.462;6.696;2023-02-16T11:03:58;36.80;;;21.13;;
7316;SDS011;3699;51.462;6.696;2023-02-16T11:06:24;35.40;;;21.57;;
7316;SDS011;3699;51.462;6.696;2023-02-16T11:08:53;50.83;;;23.60;;
7316;SDS011;3699;51.462;6.696;2023-02-16T11:11:22;35.00;;;20.33;;
7316;SDS011;3699;51.462;6.696;2023-02-16T11:13:56;37.73;;;22.60;;
7316;SDS011;3699;51.462;6.696;2023-02-16T11:16:26;40.00;;;21.00;;
7316;SDS011;3699;51.462;6.696;2023-02-16T11:18:55;34.67;;;21.67;;
7316;SDS011;3699;51.462;6.696;2023-02-16T11:24:10;34.40;;;22.17;;
7316;SDS011;3699;51.462;6.696;2023-02-16T11:26:39;37.20;;;23.37;;
7316;SDS011;3699;51.462;6.696;2023-02-16T11:29:17;38.17;;;21.50;;
7316;SDS011;3699;51.462;6.696;2023-02-16T11:31:46;43.63;;;23.67;;
7316;SDS011;3699;51.462;6.696;2023-02-16T11:34:14;36.20;;;22.80;;
7316;SDS011;3699;51.462;6.696;2023-02-16T11:37:04;40.00;;;22.27;;
7316;SDS011;3699;51.462;6.696;2023-02-16T11:39:34;36.83;;;22.93;;
7316;SDS011;3699;51.462;6.696;2023-02-16T11:42:04;38.87;;;22.07;;
7316;SDS011;3699;51.462;6.696;2023-02-16T11:44:34;40.80;;;23.80;;
7316;SDS011;3699;51.462;6.696;2023-02-16T11:47:05;35.33;;;21.97;;
7316;SDS011;3699;51.462;6.696;2023-02-16T11:49:34;38.13;;;22.80;;
7316;SDS011;3699;51.462;6.696;2023-02-16T11:52:18;35.60;;;21.93;;
7316;SDS011;3699;51.462;6.696;2023-02-16T11:54:51;42.87;;;23.20;;
7316;SDS011;3699;51.462;6.696;2023-02-16T11:57:22;37.90;;;23.63;;
7316;SDS011;3699;51.462;6.696;2023-02-16T11:59:51;39.70;;;23.17;;
7316;SDS011;3699;51.462;6.696;2023-02-16T12:02:26;41.23;;;24.50;;
7316;SDS011;3699;51.462;6.696;2023-02-16T12:05:19;45.83;;;24.30;;
7316;SDS011;3699;51.462;6.696;2023-02-16T12:07:53;46.63;;;26.53;;
7316;SDS011;3699;51.462;6.696;2023-02-16T12:10:33;41.17;;;24.30;;
7316;SDS011;3699;51.462;6.696;2023-02-16T12:13:17;47.13;;;25.83;;
7316;SDS011;3699;51.462;6.696;2023-02-16T12:15:52;39.90;;;23.40;;
7316;SDS011;3699;51.462;6.696;2023-02-16T12:18:29;40.90;;;24.17;;
7316;SDS011;3699;51.462;6.696;2023-02-16T12:21:05;41.03;;;24.60;;
7316;SDS011;3699;51.462;6.696;2023-02-16T12:23:42;40.43;;;24.57;;
7316;SDS011;3699;51.462;6.696;2023-02-16T12:26:25;42.77;;;22.90;;
7316;SDS011;3699;51.462;6.696;2023-02-16T12:29:04;37.87;;;23.70;;
7316;SDS011;3699;51.462;6.696;2023-02-16T12:31:48;41.93;;;25.37;;
7316;SDS011;3699;51.462;6.696;2023-02-16T12:34:32;41.10;;;23.90;;
7316;SDS011;3699;51.462;6.696;2023-02-16T12:37:12;43.57;;;25.33;;
7316;SDS011;3699;51.462;6.696;2023-02-16T12:39:47;40.23;;;23.30;;
7316;SDS011;3699;51.462;6.696;2023-02-16T12:42:25;34.80;;;22.37;;
7316;SDS011;3699;51.462;6.696;2023-02-16T12:45:03;34.30;;;22.13;;
7316;SDS011;3699;51.462;6.696;2023-02-16T12:47:33;36.47;;;22.93;;
7316;SDS011;3699;51.462;6.696;2023-02-16T12:50:05;40.03;;;22.43;;
7316;SDS011;3699;51.462;6.696;2023-02-16T12:52:40;32.90;;;21.10;;
7316;SDS011;3699;51.462;6.696;2023-02-16T12:55:16;32.10;;;20.63;;
7316;SDS011;3699;51.462;6.696;2023-02-16T12:57:48;36.17;;;22.10;;
7316;SDS011;3699;51.462;6.696;2023-02-16T13:00:21;31.60;;;20.70;;
7316;SDS011;3699;51.462;6.696;2023-02-16T13:02:52;37.03;;;22.57;;
7316;SDS011;3699;51.462;6.696;2023-02-16T13:05:41;36.10;;;21.80;;
7316;SDS011;3699;51.462;6.696;2023-02-16T13:08:11;40.83;;;23.43;;
7316;SDS011;3699;51.462;6.696;2023-02-16T13:10:49;33.87;;;22.83;;
7316;SDS011;3699;51.462;6.696;2023-02-16T13:13:21;34.03;;;21.43;;
7316;SDS011;3699;51.462;6.696;2023-02-16T13:15:51;37.03;;;22.90;;
7316;SDS011;3699;51.462;6.696;2023-02-16T13:18:25;34.07;;;20.83;;
7316;SDS011;3699;51.462;6.696;2023-02-16T13:20:58;35.67;;;22.33;;
7316;SDS011;3699;51.462;6.696;2023-02-16T13:23:34;34.07;;;21.83;;
7316;SDS011;3699;51.462;6.696;2023-02-16T13:26:16;38.63;;;21.33;;
7316;SDS011;3699;51.462;6.696;2023-02-16T13:31:52;37.47;;;20.97;;
7316;SDS011;3699;51.462;6.696;2023-02-16T13:34:35;32.73;;;21.60;;
7316;SDS011;3699;51.462;6.696;2023-02-16T13:37:19;33.73;;;21.63;;
7316;SDS011;3699;51.462;6.696;2023-02-16T13:39:59;30.60;;;20.47;;
7316;SDS011;3699;51.462;6.696;2023-02-16T13:43:00;39.67;;;21.80;;
7316;SDS011;3699;51.462;6.696;2023-02-16T13:45:38;34.63;;;21.83;;
7316;SDS011;3699;51.462;6.696;2023-02-16T13:48:12;35.53;;;22.13;;
7316;SDS011;3699;51.462;6.696;2023-02-16T13:50:41;38.07;;;23.47;;
7316;SDS011;3699;51.462;6.696;2023-02-16T13:53:10;37.67;;;22.53;;
7316;SDS011;3699;51.462;6.696;2023-02-16T13:55:43;37.47;;;24.43;;
7316;SDS011;3699;51.462;6.696;2023-02-16T13:58:27;40.43;;;24.43;;
7316;SDS011;3699;51.462;6.696;2023-02-16T14:00:56;41.90;;;23.63;;
7316;SDS011;3699;51.462;6.696;2023-02-16T14:03:33;38.87;;;23.80;;
7316;SDS011;3699;51.462;6.696;2023-02-16T14:11:59;40.47;;;24.97;;
7316;SDS011;3699;51.462;6.696;2023-02-16T14:14:28;41.67;;;25.67;;
7316;SDS011;3699;51.462;6.696;2023-02-16T14:19:49;40.27;;;24.93;;
7316;SDS011;3699;51.462;6.696;2023-02-16T14:22:18;46.37;;;26.47;;
7316;SDS011;3699;51.462;6.696;2023-02-16T14:24:52;38.50;;;24.63;;
7316;SDS011;3699;51.462;6.696;2023-02-16T14:30:13;35.77;;;23.40;;
7316;SDS011;3699;51.462;6.696;2023-02-16T14:32:45;37.00;;;25.17;;
7316;SDS011;3699;51.462;6.696;2023-02-16T14:35:16;39.40;;;25.33;;
7316;SDS011;3699;51.462;6.696;2023-02-16T14:37:50;36.87;;;23.93;;
7316;SDS011;3699;51.462;6.696;2023-02-16T14:40:28;41.43;;;25.60;;
7316;SDS011;3699;51.462;6.696;2023-02-16T14:43:11;40.13;;;26.07;;
7316;SDS011;3699;51.462;6.696;2023-02-16T14:46:06;46.60;;;27.43;;
7316;SDS011;3699;51.462;6.696;2023-02-16T14:58:01;46.77;;;27.00;;
7316;SDS011;3699;51.462;6.696;2023-02-16T15:00:32;42.67;;;27.07;;
7316;SDS011;3699;51.462;6.696;2023-02-16T15:03:13;40.70;;;26.63;;
7316;SDS011;3699;51.462;6.696;2023-02-16T15:05:42;40.40;;;24.50;;
7316;SDS011;3699;51.462;6.696;2023-02-16T15:08:16;42.27;;;25.87;;
7316;SDS011;3699;51.462;6.696;2023-02-16T15:10:48;48.47;;;26.73;;
7316;SDS011;3699;51.462;6.696;2023-02-16T15:13:18;43.53;;;27.23;;
7316;SDS011;3699;51.462;6.696;2023-02-16T15:15:46;41.73;;;26.30;;
7316;SDS011;3699;51.462;6.696;2023-02-16T15:18:16;49.33;;;26.63;;
7316;SDS011;3699;51.462;6.696;2023-02-16T15:20:46;45.17;;;27.93;;
7316;SDS011;3699;51.462;6.696;2023-02-16T15:23:16;39.93;;;25.70;;
7316;SDS011;3699;51.462;6.696;2023-02-16T15:25:52;45.30;;;25.80;;
7316;SDS011;3699;51.462;6.696;2023-02-16T15:28:23;42.90;;;26.20;;
7316;SDS011;3699;51.462;6.696;2023-02-16T15:30:52;42.57;;;25.23;;
7316;SDS011;3699;51.462;6.696;2023-02-16T15:33:25;40.87;;;26.10;;
7316;SDS011;3699;51.462;6.696;2023-02-16T15:35:56;41.23;;;25.37;;
7316;SDS011;3699;51.462;6.696;2023-02-16T15:38:26;42.50;;;27.27;;
7316;SDS011;3699;51.462;6.696;2023-02-16T15:40:57;52.20;;;25.87;;
7316;SDS011;3699;51.462;6.696;2023-02-16T15:43:28;40.80;;;27.20;;